sensor_id;sensor_type;location;lat;lon;timestamp;temperature;humidity
66871;DHT22;53780;44.998;9.926;2023-07-13T00:00:55;26.49;57.74
66871;DHT22;53780;44.998;9.926;2023-07-13T00:04:01;26.42;58.05
66871;DHT22;53780;44.998;9.926;2023-07-13T00:07:05;26.25;58.32
66871;DHT22;53780;44.998;9.926;2023-07-13T00:10:09;26.25;58.44
66871;DHT22;53780;44.998;9.926;2023-07-13T00:13:13;26.18;58.55
66871;DHT22;53780;44.998;9.926;2023-07-13T00:16:17;26.17;58.75
66871;DHT22;53780;44.998;9.926;2023-07-13T00:19:22;26.12;58.82
66871;DHT22;53780;44.998;9.926;2023-07-13T00:22:26;26.06;58.86
66871;DHT22;53780;44.998;9.926;2023-07-13T00:25:30;25.95;59.21
66871;DHT22;53780;44.998;9.926;2023-07-13T00:28:34;25.85;59.43
66871;DHT22;53780;44.998;9.926;2023-07-13T00:31:38;25.94;59.40
66871;DHT22;53780;44.998;9.926;2023-07-13T00:34:42;25.90;59.56
66871;DHT22;53780;44.998;9.926;2023-07-13T00:37:46;25.85;59.71
66871;DHT22;53780;44.998;9.926;2023-07-13T00:40:52;25.85;59.73
66871;DHT22;53780;44.998;9.926;2023-07-13T00:43:57;25.88;59.56
66871;DHT22;53780;44.998;9.926;2023-07-13T00:47:03;25.77;59.97
66871;DHT22;53780;44.998;9.926;2023-07-13T00:50:09;25.78;59.62
66871;DHT22;53780;44.998;9.926;2023-07-13T00:53:14;25.70;60.03
66871;DHT22;53780;44.998;9.926;2023-07-13T00:56:18;25.73;60.10
66871;DHT22;53780;44.998;9.926;2023-07-13T00:59:22;25.71;60.16
66871;DHT22;53780;44.998;9.926;2023-07-13T01:02:28;25.50;60.80
66871;DHT22;53780;44.998;9.926;2023-07-13T01:05:34;25.56;60.71
66871;DHT22;53780;44.998;9.926;2023-07-13T01:08:38;25.50;60.79
66871;DHT22;53780;44.998;9.926;2023-07-13T01:11:43;25.54;60.89
66871;DHT22;53780;44.998;9.926;2023-07-13T01:14:48;25.57;60.70
66871;DHT22;53780;44.998;9.926;2023-07-13T01:17:52;25.53;60.54
66871;DHT22;53780;44.998;9.926;2023-07-13T01:20:58;25.54;60.89
66871;DHT22;53780;44.998;9.926;2023-07-13T01:24:02;25.51;61.07
66871;DHT22;53780;44.998;9.926;2023-07-13T01:27:07;25.51;62.27
66871;DHT22;53780;44.998;9.926;2023-07-13T01:30:12;25.40;63.68
66871;DHT22;53780;44.998;9.926;2023-07-13T01:33:17;25.19;63.14
66871;DHT22;53780;44.998;9.926;2023-07-13T01:36:21;25.07;63.50
66871;DHT22;53780;44.998;9.926;2023-07-13T01:39:25;25.01;63.40
66871;DHT22;53780;44.998;9.926;2023-07-13T01:42:29;25.05;63.18
66871;DHT22;53780;44.998;9.926;2023-07-13T01:45:34;25.09;63.01
66871;DHT22;53780;44.998;9.926;2023-07-13T01:48:39;25.11;63.36
66871;DHT22;53780;44.998;9.926;2023-07-13T01:51:43;25.08;64.37
66871;DHT22;53780;44.998;9.926;2023-07-13T01:54:48;24.98;64.38
66871;DHT22;53780;44.998;9.926;2023-07-13T01:57:54;24.91;65.52
66871;DHT22;53780;44.998;9.926;2023-07-13T02:00:58;24.75;66.42
66871;DHT22;53780;44.998;9.926;2023-07-13T02:04:02;24.70;67.14
66871;DHT22;53780;44.998;9.926;2023-07-13T02:07:10;24.60;67.14
66871;DHT22;53780;44.998;9.926;2023-07-13T02:10:14;24.46;67.46
66871;DHT22;53780;44.998;9.926;2023-07-13T02:13:18;24.30;68.05
66871;DHT22;53780;44.998;9.926;2023-07-13T02:16:22;24.33;67.88
66871;DHT22;53780;44.998;9.926;2023-07-13T02:19:26;24.32;68.22
66871;DHT22;53780;44.998;9.926;2023-07-13T02:22:30;24.32;68.25
66871;DHT22;53780;44.998;9.926;2023-07-13T02:25:34;24.34;67.68
66871;DHT22;53780;44.998;9.926;2023-07-13T02:28:38;24.25;67.42
66871;DHT22;53780;44.998;9.926;2023-07-13T02:31:42;24.26;67.10
66871;DHT22;53780;44.998;9.926;2023-07-13T02:34:46;24.29;66.67
66871;DHT22;53780;44.998;9.926;2023-07-13T02:37:49;24.32;66.33
66871;DHT22;53780;44.998;9.926;2023-07-13T02:40:53;24.30;66.28
66871;DHT22;53780;44.998;9.926;2023-07-13T02:43:58;24.29;66.64
66871;DHT22;53780;44.998;9.926;2023-07-13T02:47:07;24.30;66.67
66871;DHT22;53780;44.998;9.926;2023-07-13T02:50:10;24.34;66.20
66871;DHT22;53780;44.998;9.926;2023-07-13T02:53:14;24.30;66.36
66871;DHT22;53780;44.998;9.926;2023-07-13T02:56:21;24.26;67.10
66871;DHT22;53780;44.998;9.926;2023-07-13T02:59:25;24.26;66.79
66871;DHT22;53780;44.998;9.926;2023-07-13T03:02:30;24.26;66.62
66871;DHT22;53780;44.998;9.926;2023-07-13T03:05:37;24.22;66.65
66871;DHT22;53780;44.998;9.926;2023-07-13T03:08:43;24.27;66.90
66871;DHT22;53780;44.998;9.926;2023-07-13T03:11:46;24.19;68.94
66871;DHT22;53780;44.998;9.926;2023-07-13T03:14:58;24.12;69.21
66871;DHT22;53780;44.998;9.926;2023-07-13T03:18:02;23.98;70.07
66871;DHT22;53780;44.998;9.926;2023-07-13T03:21:06;23.89;70.40
66871;DHT22;53780;44.998;9.926;2023-07-13T03:24:11;23.85;70.52
66871;DHT22;53780;44.998;9.926;2023-07-13T03:27:16;23.88;70.98
66871;DHT22;53780;44.998;9.926;2023-07-13T03:30:20;23.85;71.26
66871;DHT22;53780;44.998;9.926;2023-07-13T03:33:25;23.85;71.35
66871;DHT22;53780;44.998;9.926;2023-07-13T03:36:29;23.82;71.33
66871;DHT22;53780;44.998;9.926;2023-07-13T03:39:37;23.82;71.35
66871;DHT22;53780;44.998;9.926;2023-07-13T03:42:40;23.81;71.61
66871;DHT22;53780;44.998;9.926;2023-07-13T03:45:44;23.74;71.73
66871;DHT22;53780;44.998;9.926;2023-07-13T03:48:48;23.72;72.03
66871;DHT22;53780;44.998;9.926;2023-07-13T03:51:52;23.67;72.19
66871;DHT22;53780;44.998;9.926;2023-07-13T03:54:56;23.64;72.37
66871;DHT22;53780;44.998;9.926;2023-07-13T04:01:28;23.68;72.92
66871;DHT22;53780;44.998;9.926;2023-07-13T04:04:32;23.72;73.05
66871;DHT22;53780;44.998;9.926;2023-07-13T04:07:35;23.77;72.87
66871;DHT22;53780;44.998;9.926;2023-07-13T04:10:39;23.78;73.10
66871;DHT22;53780;44.998;9.926;2023-07-13T04:13:43;23.82;72.85
66871;DHT22;53780;44.998;9.926;2023-07-13T04:16:47;23.86;72.96
66871;DHT22;53780;44.998;9.926;2023-07-13T04:19:51;23.85;72.56
66871;DHT22;53780;44.998;9.926;2023-07-13T04:22:55;23.89;72.56
66871;DHT22;53780;44.998;9.926;2023-07-13T04:25:59;23.92;72.25
66871;DHT22;53780;44.998;9.926;2023-07-13T04:29:03;24.02;72.57
66871;DHT22;53780;44.998;9.926;2023-07-13T04:32:08;24.08;72.67
66871;DHT22;53780;44.998;9.926;2023-07-13T04:35:15;24.10;72.78
66871;DHT22;53780;44.998;9.926;2023-07-13T04:38:19;24.15;72.75
66871;DHT22;53780;44.998;9.926;2023-07-13T04:41:22;24.22;72.35
66871;DHT22;53780;44.998;9.926;2023-07-13T04:44:26;24.22;72.58
66871;DHT22;53780;44.998;9.926;2023-07-13T04:47:31;24.25;72.29
66871;DHT22;53780;44.998;9.926;2023-07-13T04:50:37;24.23;72.52
66871;DHT22;53780;44.998;9.926;2023-07-13T04:53:41;24.19;72.69
66871;DHT22;53780;44.998;9.926;2023-07-13T04:56:45;24.16;72.78
66871;DHT22;53780;44.998;9.926;2023-07-13T04:59:48;24.10;72.59
66871;DHT22;53780;44.998;9.926;2023-07-13T05:02:55;24.06;72.65
66871;DHT22;53780;44.998;9.926;2023-07-13T05:06:02;24.08;72.54
66871;DHT22;53780;44.998;9.926;2023-07-13T05:09:06;24.08;72.84
66871;DHT22;53780;44.998;9.926;2023-07-13T05:12:10;24.04;72.18
66871;DHT22;53780;44.998;9.926;2023-07-13T05:15:14;24.04;71.97
66871;DHT22;53780;44.998;9.926;2023-07-13T05:18:19;24.04;71.75
66871;DHT22;53780;44.998;9.926;2023-07-13T05:21:22;24.09;71.45
66871;DHT22;53780;44.998;9.926;2023-07-13T05:24:27;24.06;71.02
66871;DHT22;53780;44.998;9.926;2023-07-13T05:27:31;24.08;71.44
66871;DHT22;53780;44.998;9.926;2023-07-13T05:30:35;24.09;71.07
66871;DHT22;53780;44.998;9.926;2023-07-13T05:33:40;24.08;71.89
66871;DHT22;53780;44.998;9.926;2023-07-13T05:36:43;24.05;72.70
66871;DHT22;53780;44.998;9.926;2023-07-13T05:39:47;24.04;72.97
66871;DHT22;53780;44.998;9.926;2023-07-13T05:42:50;24.02;73.40
66871;DHT22;53780;44.998;9.926;2023-07-13T05:45:56;23.96;73.55
66871;DHT22;53780;44.998;9.926;2023-07-13T05:49:00;23.90;73.31
66871;DHT22;53780;44.998;9.926;2023-07-13T05:52:04;23.84;73.58
66871;DHT22;53780;44.998;9.926;2023-07-13T05:55:09;23.85;73.45
66871;DHT22;53780;44.998;9.926;2023-07-13T05:58:13;23.85;73.91
66871;DHT22;53780;44.998;9.926;2023-07-13T06:01:17;23.89;74.10
66871;DHT22;53780;44.998;9.926;2023-07-13T06:04:22;23.92;74.68
66871;DHT22;53780;44.998;9.926;2023-07-13T06:07:26;23.90;74.10
66871;DHT22;53780;44.998;9.926;2023-07-13T06:10:35;23.77;73.15
66871;DHT22;53780;44.998;9.926;2023-07-13T06:13:39;23.79;73.90
66871;DHT22;53780;44.998;9.926;2023-07-13T06:16:43;23.84;74.15
66871;DHT22;53780;44.998;9.926;2023-07-13T06:19:47;23.81;74.26
66871;DHT22;53780;44.998;9.926;2023-07-13T06:22:50;23.86;74.32
66871;DHT22;53780;44.998;9.926;2023-07-13T06:25:54;23.88;74.82
66871;DHT22;53780;44.998;9.926;2023-07-13T06:28:58;23.84;74.93
66871;DHT22;53780;44.998;9.926;2023-07-13T06:32:02;23.85;75.08
66871;DHT22;53780;44.998;9.926;2023-07-13T06:35:06;23.81;75.29
66871;DHT22;53780;44.998;9.926;2023-07-13T06:38:10;23.81;75.58
66871;DHT22;53780;44.998;9.926;2023-07-13T06:41:13;23.77;75.10
66871;DHT22;53780;44.998;9.926;2023-07-13T06:44:17;23.75;75.32
66871;DHT22;53780;44.998;9.926;2023-07-13T06:47:21;23.78;75.50
66871;DHT22;53780;44.998;9.926;2023-07-13T06:50:25;23.74;74.96
66871;DHT22;53780;44.998;9.926;2023-07-13T06:53:29;23.77;74.92
66871;DHT22;53780;44.998;9.926;2023-07-13T06:56:35;23.81;74.64
66871;DHT22;53780;44.998;9.926;2023-07-13T06:59:38;23.85;75.02
66871;DHT22;53780;44.998;9.926;2023-07-13T07:02:43;23.88;75.47
66871;DHT22;53780;44.998;9.926;2023-07-13T07:05:46;23.89;75.99
66871;DHT22;53780;44.998;9.926;2023-07-13T07:08:51;23.86;75.18
66871;DHT22;53780;44.998;9.926;2023-07-13T07:11:55;23.81;75.40
66871;DHT22;53780;44.998;9.926;2023-07-13T07:14:59;23.79;75.60
66871;DHT22;53780;44.998;9.926;2023-07-13T07:18:03;23.68;75.39
66871;DHT22;53780;44.998;9.926;2023-07-13T07:21:07;23.69;74.75
66871;DHT22;53780;44.998;9.926;2023-07-13T07:24:10;23.79;74.49
66871;DHT22;53780;44.998;9.926;2023-07-13T07:27:14;23.81;74.36
66871;DHT22;53780;44.998;9.926;2023-07-13T07:30:18;23.85;74.60
66871;DHT22;53780;44.998;9.926;2023-07-13T07:33:22;23.88;74.00
66871;DHT22;53780;44.998;9.926;2023-07-13T07:36:26;23.89;74.00
66871;DHT22;53780;44.998;9.926;2023-07-13T07:39:31;23.94;73.78
66871;DHT22;53780;44.998;9.926;2023-07-13T07:42:35;23.95;73.86
66871;DHT22;53780;44.998;9.926;2023-07-13T07:45:40;23.98;74.42
66871;DHT22;53780;44.998;9.926;2023-07-13T07:48:44;23.96;75.04
66871;DHT22;53780;44.998;9.926;2023-07-13T07:51:47;23.88;75.01
66871;DHT22;53780;44.998;9.926;2023-07-13T07:54:51;23.86;74.60
66871;DHT22;53780;44.998;9.926;2023-07-13T07:57:56;23.92;74.29
66871;DHT22;53780;44.998;9.926;2023-07-13T08:01:04;23.92;74.82
66871;DHT22;53780;44.998;9.926;2023-07-13T08:04:09;23.95;75.39
66871;DHT22;53780;44.998;9.926;2023-07-13T08:07:13;23.92;75.49
66871;DHT22;53780;44.998;9.926;2023-07-13T08:10:17;23.96;75.97
66871;DHT22;53780;44.998;9.926;2023-07-13T08:13:21;23.96;76.40
66871;DHT22;53780;44.998;9.926;2023-07-13T08:16:26;23.96;75.59
66871;DHT22;53780;44.998;9.926;2023-07-13T08:19:30;23.96;75.60
66871;DHT22;53780;44.998;9.926;2023-07-13T08:22:33;23.99;75.47
66871;DHT22;53780;44.998;9.926;2023-07-13T08:25:37;24.02;75.50
66871;DHT22;53780;44.998;9.926;2023-07-13T08:28:41;24.06;75.48
66871;DHT22;53780;44.998;9.926;2023-07-13T08:31:45;24.06;75.30
66871;DHT22;53780;44.998;9.926;2023-07-13T08:34:49;24.01;73.86
66871;DHT22;53780;44.998;9.926;2023-07-13T08:37:53;24.01;74.01
66871;DHT22;53780;44.998;9.926;2023-07-13T08:40:58;24.04;74.07
66871;DHT22;53780;44.998;9.926;2023-07-13T08:44:02;24.12;73.72
66871;DHT22;53780;44.998;9.926;2023-07-13T08:47:09;24.20;73.86
66871;DHT22;53780;44.998;9.926;2023-07-13T08:50:17;24.25;73.24
66871;DHT22;53780;44.998;9.926;2023-07-13T08:53:24;24.30;72.46
66871;DHT22;53780;44.998;9.926;2023-07-13T08:56:32;24.32;72.33
66871;DHT22;53780;44.998;9.926;2023-07-13T08:59:37;24.37;72.99
66871;DHT22;53780;44.998;9.926;2023-07-13T09:02:54;24.40;71.77
66871;DHT22;53780;44.998;9.926;2023-07-13T09:05:59;24.44;71.44
66871;DHT22;53780;44.998;9.926;2023-07-13T09:09:31;24.47;71.75
66871;DHT22;53780;44.998;9.926;2023-07-13T09:16:09;24.71;71.72
66871;DHT22;53780;44.998;9.926;2023-07-13T09:19:20;24.85;71.09
66871;DHT22;53780;44.998;9.926;2023-07-13T09:22:28;24.99;70.97
66871;DHT22;53780;44.998;9.926;2023-07-13T09:25:36;25.15;69.96
66871;DHT22;53780;44.998;9.926;2023-07-13T09:28:46;25.29;69.83
66871;DHT22;53780;44.998;9.926;2023-07-13T09:31:54;25.45;70.15
66871;DHT22;53780;44.998;9.926;2023-07-13T09:34:59;25.54;71.51
66871;DHT22;53780;44.998;9.926;2023-07-13T09:38:16;25.74;75.25
66871;DHT22;53780;44.998;9.926;2023-07-13T09:41:50;25.78;73.00
66871;DHT22;53780;44.998;9.926;2023-07-13T09:44:58;25.83;73.79
66871;DHT22;53780;44.998;9.926;2023-07-13T09:48:11;25.78;70.28
66871;DHT22;53780;44.998;9.926;2023-07-13T09:51:17;25.80;72.75
66871;DHT22;53780;44.998;9.926;2023-07-13T09:54:24;25.83;72.32
66871;DHT22;53780;44.998;9.926;2023-07-13T09:57:28;25.83;69.41
66871;DHT22;53780;44.998;9.926;2023-07-13T10:00:33;25.81;70.26
66871;DHT22;53780;44.998;9.926;2023-07-13T10:03:37;25.84;71.07
66871;DHT22;53780;44.998;9.926;2023-07-13T10:06:41;25.87;70.12
66871;DHT22;53780;44.998;9.926;2023-07-13T10:09:46;26.04;71.80
66871;DHT22;53780;44.998;9.926;2023-07-13T10:12:50;26.24;71.92
66871;DHT22;53780;44.998;9.926;2023-07-13T10:15:55;26.56;71.02
66871;DHT22;53780;44.998;9.926;2023-07-13T10:19:17;26.91;68.65
66871;DHT22;53780;44.998;9.926;2023-07-13T10:22:30;27.31;67.10
66871;DHT22;53780;44.998;9.926;2023-07-13T10:25:41;27.65;66.78
66871;DHT22;53780;44.998;9.926;2023-07-13T10:28:52;27.89;62.97
66871;DHT22;53780;44.998;9.926;2023-07-13T10:31:59;27.98;64.01
66871;DHT22;53780;44.998;9.926;2023-07-13T10:35:03;28.04;64.39
66871;DHT22;53780;44.998;9.926;2023-07-13T10:38:12;28.20;63.03
66871;DHT22;53780;44.998;9.926;2023-07-13T10:41:21;28.45;61.04
66871;DHT22;53780;44.998;9.926;2023-07-13T10:44:28;28.72;59.65
66871;DHT22;53780;44.998;9.926;2023-07-13T10:47:32;29.00;60.77
66871;DHT22;53780;44.998;9.926;2023-07-13T10:50:37;29.23;59.68
66871;DHT22;53780;44.998;9.926;2023-07-13T10:53:44;29.35;59.66
66871;DHT22;53780;44.998;9.926;2023-07-13T10:57:19;29.55;57.19
66871;DHT22;53780;44.998;9.926;2023-07-13T11:00:23;29.72;58.06
66871;DHT22;53780;44.998;9.926;2023-07-13T11:03:29;29.86;56.01
66871;DHT22;53780;44.998;9.926;2023-07-13T11:06:38;29.93;55.67
66871;DHT22;53780;44.998;9.926;2023-07-13T11:09:50;30.06;56.17
66871;DHT22;53780;44.998;9.926;2023-07-13T11:12:54;30.20;55.09
66871;DHT22;53780;44.998;9.926;2023-07-13T11:15:58;30.23;57.27
66871;DHT22;53780;44.998;9.926;2023-07-13T11:25:28;30.60;55.43
66871;DHT22;53780;44.998;9.926;2023-07-13T11:28:41;30.68;55.57
66871;DHT22;53780;44.998;9.926;2023-07-13T11:31:55;30.69;51.42
66871;DHT22;53780;44.998;9.926;2023-07-13T11:34:59;30.68;51.00
66871;DHT22;53780;44.998;9.926;2023-07-13T11:38:03;30.64;51.54
66871;DHT22;53780;44.998;9.926;2023-07-13T11:41:19;30.54;52.16
66871;DHT22;53780;44.998;9.926;2023-07-13T11:44:28;30.48;51.70
66871;DHT22;53780;44.998;9.926;2023-07-13T11:47:32;30.43;52.55
66871;DHT22;53780;44.998;9.926;2023-07-13T11:50:36;30.43;52.63
66871;DHT22;53780;44.998;9.926;2023-07-13T11:53:49;30.36;52.39
66871;DHT22;53780;44.998;9.926;2023-07-13T11:56:58;30.34;53.62
66871;DHT22;53780;44.998;9.926;2023-07-13T12:00:12;30.34;53.93
66871;DHT22;53780;44.998;9.926;2023-07-13T12:03:21;30.34;54.62
66871;DHT22;53780;44.998;9.926;2023-07-13T12:06:32;30.30;55.77
66871;DHT22;53780;44.998;9.926;2023-07-13T12:09:36;30.30;54.71
66871;DHT22;53780;44.998;9.926;2023-07-13T12:12:56;30.26;54.63
66871;DHT22;53780;44.998;9.926;2023-07-13T12:16:00;30.21;56.38
66871;DHT22;53780;44.998;9.926;2023-07-13T12:19:09;30.21;54.86
66871;DHT22;53780;44.998;9.926;2023-07-13T12:22:19;30.20;55.54
66871;DHT22;53780;44.998;9.926;2023-07-13T12:25:24;30.16;55.67
66871;DHT22;53780;44.998;9.926;2023-07-13T12:28:47;30.13;55.33
66871;DHT22;53780;44.998;9.926;2023-07-13T12:31:52;30.10;55.37
66871;DHT22;53780;44.998;9.926;2023-07-13T12:35:15;30.06;56.98
66871;DHT22;53780;44.998;9.926;2023-07-13T12:38:19;30.05;57.04
66871;DHT22;53780;44.998;9.926;2023-07-13T12:41:25;30.00;56.66
66871;DHT22;53780;44.998;9.926;2023-07-13T12:44:31;30.00;57.03
66871;DHT22;53780;44.998;9.926;2023-07-13T12:47:43;29.99;57.54
66871;DHT22;53780;44.998;9.926;2023-07-13T12:50:49;29.98;58.36
66871;DHT22;53780;44.998;9.926;2023-07-13T12:53:58;29.96;56.47
66871;DHT22;53780;44.998;9.926;2023-07-13T12:57:16;29.92;56.72
66871;DHT22;53780;44.998;9.926;2023-07-13T13:03:33;29.89;58.14
66871;DHT22;53780;44.998;9.926;2023-07-13T13:06:36;29.92;58.05
66871;DHT22;53780;44.998;9.926;2023-07-13T13:09:40;29.93;58.08
66871;DHT22;53780;44.998;9.926;2023-07-13T13:12:47;29.96;57.47
66871;DHT22;53780;44.998;9.926;2023-07-13T13:15:51;29.95;57.50
66871;DHT22;53780;44.998;9.926;2023-07-13T13:18:56;29.93;57.44
66871;DHT22;53780;44.998;9.926;2023-07-13T13:22:00;29.96;58.05
66871;DHT22;53780;44.998;9.926;2023-07-13T13:25:04;29.98;58.18
66871;DHT22;53780;44.998;9.926;2023-07-13T13:28:17;29.93;58.11
66871;DHT22;53780;44.998;9.926;2023-07-13T13:31:21;29.93;57.73
66871;DHT22;53780;44.998;9.926;2023-07-13T13:34:25;29.98;57.45
66871;DHT22;53780;44.998;9.926;2023-07-13T13:37:29;29.96;57.61
66871;DHT22;53780;44.998;9.926;2023-07-13T13:40:33;29.96;56.00
66871;DHT22;53780;44.998;9.926;2023-07-13T13:43:38;29.96;56.97
66871;DHT22;53780;44.998;9.926;2023-07-13T13:46:47;29.95;57.18
66871;DHT22;53780;44.998;9.926;2023-07-13T13:49:51;29.96;57.34
66871;DHT22;53780;44.998;9.926;2023-07-13T13:52:56;29.95;57.35
66871;DHT22;53780;44.998;9.926;2023-07-13T13:56:00;29.95;56.48
66871;DHT22;53780;44.998;9.926;2023-07-13T13:59:04;29.95;57.12
66871;DHT22;53780;44.998;9.926;2023-07-13T14:02:28;29.92;56.96
66871;DHT22;53780;44.998;9.926;2023-07-13T14:05:34;29.95;57.11
66871;DHT22;53780;44.998;9.926;2023-07-13T14:08:38;29.98;57.59
66871;DHT22;53780;44.998;9.926;2023-07-13T14:11:42;30.00;57.79
66871;DHT22;53780;44.998;9.926;2023-07-13T14:14:47;30.03;57.45
66871;DHT22;53780;44.998;9.926;2023-07-13T14:17:51;30.02;57.71
66871;DHT22;53780;44.998;9.926;2023-07-13T14:20:55;30.06;58.18
66871;DHT22;53780;44.998;9.926;2023-07-13T14:23:58;30.02;56.16
66871;DHT22;53780;44.998;9.926;2023-07-13T14:27:02;30.05;56.48
66871;DHT22;53780;44.998;9.926;2023-07-13T14:33:18;30.03;57.41
66871;DHT22;53780;44.998;9.926;2023-07-13T14:36:28;30.05;57.66
66871;DHT22;53780;44.998;9.926;2023-07-13T14:39:33;30.13;57.42
66871;DHT22;53780;44.998;9.926;2023-07-13T14:42:37;30.16;58.01
66871;DHT22;53780;44.998;9.926;2023-07-13T14:45:44;30.20;58.47
66871;DHT22;53780;44.998;9.926;2023-07-13T14:48:48;30.27;59.20
66871;DHT22;53780;44.998;9.926;2023-07-13T14:51:52;30.33;58.63
66871;DHT22;53780;44.998;9.926;2023-07-13T14:54:57;30.36;58.35
66871;DHT22;53780;44.998;9.926;2023-07-13T14:58:01;30.36;57.60
66871;DHT22;53780;44.998;9.926;2023-07-13T15:01:10;30.37;57.63
66871;DHT22;53780;44.998;9.926;2023-07-13T15:04:16;30.36;57.33
66871;DHT22;53780;44.998;9.926;2023-07-13T15:07:22;30.37;57.58
66871;DHT22;53780;44.998;9.926;2023-07-13T15:10:29;30.37;58.61
66871;DHT22;53780;44.998;9.926;2023-07-13T15:13:34;30.37;58.01
66871;DHT22;53780;44.998;9.926;2023-07-13T15:16:38;30.37;59.26
66871;DHT22;53780;44.998;9.926;2023-07-13T15:19:42;30.43;58.41
66871;DHT22;53780;44.998;9.926;2023-07-13T15:22:46;30.41;56.88
66871;DHT22;53780;44.998;9.926;2023-07-13T15:25:52;30.40;57.56
66871;DHT22;53780;44.998;9.926;2023-07-13T15:28:58;30.37;57.54
66871;DHT22;53780;44.998;9.926;2023-07-13T15:32:02;30.30;57.66
66871;DHT22;53780;44.998;9.926;2023-07-13T15:35:20;30.30;57.46
66871;DHT22;53780;44.998;9.926;2023-07-13T15:38:35;30.24;57.83
66871;DHT22;53780;44.998;9.926;2023-07-13T15:41:43;30.19;58.67
66871;DHT22;53780;44.998;9.926;2023-07-13T15:44:48;30.14;56.87
66871;DHT22;53780;44.998;9.926;2023-07-13T15:47:54;30.10;56.87
66871;DHT22;53780;44.998;9.926;2023-07-13T15:51:05;30.06;57.64
66871;DHT22;53780;44.998;9.926;2023-07-13T15:54:12;30.02;58.08
66871;DHT22;53780;44.998;9.926;2023-07-13T15:57:20;30.06;57.67
66871;DHT22;53780;44.998;9.926;2023-07-13T16:00:26;30.06;57.13
66871;DHT22;53780;44.998;9.926;2023-07-13T16:03:30;30.05;57.26
66871;DHT22;53780;44.998;9.926;2023-07-13T16:06:36;30.00;57.23
66871;DHT22;53780;44.998;9.926;2023-07-13T16:09:41;29.96;57.76
66871;DHT22;53780;44.998;9.926;2023-07-13T16:12:46;29.93;57.26
66871;DHT22;53780;44.998;9.926;2023-07-13T16:15:51;29.89;56.41
66871;DHT22;53780;44.998;9.926;2023-07-13T16:18:57;29.86;56.96
66871;DHT22;53780;44.998;9.926;2023-07-13T16:22:01;29.86;57.26
66871;DHT22;53780;44.998;9.926;2023-07-13T16:25:16;29.83;57.17
66871;DHT22;53780;44.998;9.926;2023-07-13T16:28:21;29.86;58.08
66871;DHT22;53780;44.998;9.926;2023-07-13T16:31:26;29.88;57.23
66871;DHT22;53780;44.998;9.926;2023-07-13T16:34:35;29.83;57.22
66871;DHT22;53780;44.998;9.926;2023-07-13T16:37:39;29.78;57.44
66871;DHT22;53780;44.998;9.926;2023-07-13T16:40:44;29.78;57.51
66871;DHT22;53780;44.998;9.926;2023-07-13T16:43:48;29.73;57.54
66871;DHT22;53780;44.998;9.926;2023-07-13T16:46:53;29.76;57.65
66871;DHT22;53780;44.998;9.926;2023-07-13T16:49:59;29.69;57.74
66871;DHT22;53780;44.998;9.926;2023-07-13T16:53:20;29.62;57.97
66871;DHT22;53780;44.998;9.926;2023-07-13T16:56:25;29.61;58.34
66871;DHT22;53780;44.998;9.926;2023-07-13T16:59:32;29.61;58.00
66871;DHT22;53780;44.998;9.926;2023-07-13T17:02:37;29.59;57.78
66871;DHT22;53780;44.998;9.926;2023-07-13T17:05:43;29.59;58.19
66871;DHT22;53780;44.998;9.926;2023-07-13T17:08:47;29.58;58.18
66871;DHT22;53780;44.998;9.926;2023-07-13T17:11:51;29.55;57.71
66871;DHT22;53780;44.998;9.926;2023-07-13T17:14:57;29.54;57.25
66871;DHT22;53780;44.998;9.926;2023-07-13T17:18:04;29.51;58.34
66871;DHT22;53780;44.998;9.926;2023-07-13T17:21:14;29.47;58.04
66871;DHT22;53780;44.998;9.926;2023-07-13T17:24:26;29.45;57.96
66871;DHT22;53780;44.998;9.926;2023-07-13T17:27:30;29.44;58.12
66871;DHT22;53780;44.998;9.926;2023-07-13T17:30:38;29.41;58.41
66871;DHT22;53780;44.998;9.926;2023-07-13T17:33:44;29.37;58.65
66871;DHT22;53780;44.998;9.926;2023-07-13T17:36:49;29.39;58.20
66871;DHT22;53780;44.998;9.926;2023-07-13T17:39:53;29.39;58.50
66871;DHT22;53780;44.998;9.926;2023-07-13T17:42:57;29.33;58.42
66871;DHT22;53780;44.998;9.926;2023-07-13T17:46:09;29.27;58.80
66871;DHT22;53780;44.998;9.926;2023-07-13T17:49:19;29.24;58.89
66871;DHT22;53780;44.998;9.926;2023-07-13T17:52:24;29.20;58.35
66871;DHT22;53780;44.998;9.926;2023-07-13T17:55:33;29.18;58.87
66871;DHT22;53780;44.998;9.926;2023-07-13T17:58:37;29.17;58.64
66871;DHT22;53780;44.998;9.926;2023-07-13T18:01:41;29.14;58.70
66871;DHT22;53780;44.998;9.926;2023-07-13T18:04:47;29.13;59.06
66871;DHT22;53780;44.998;9.926;2023-07-13T18:07:52;29.08;59.29
66871;DHT22;53780;44.998;9.926;2023-07-13T18:10:59;29.07;59.54
66871;DHT22;53780;44.998;9.926;2023-07-13T18:14:04;29.03;59.59
66871;DHT22;53780;44.998;9.926;2023-07-13T18:17:12;29.03;59.59
66871;DHT22;53780;44.998;9.926;2023-07-13T18:20:21;28.99;59.84
66871;DHT22;53780;44.998;9.926;2023-07-13T18:23:25;28.95;60.86
66871;DHT22;53780;44.998;9.926;2023-07-13T18:26:30;28.88;60.04
66871;DHT22;53780;44.998;9.926;2023-07-13T18:29:34;28.73;60.14
66871;DHT22;53780;44.998;9.926;2023-07-13T18:32:42;28.59;61.13
66871;DHT22;53780;44.998;9.926;2023-07-13T18:36:27;28.42;62.92
66871;DHT22;53780;44.998;9.926;2023-07-13T18:39:32;28.28;63.69
66871;DHT22;53780;44.998;9.926;2023-07-13T18:42:36;28.18;64.06
66871;DHT22;53780;44.998;9.926;2023-07-13T18:45:40;28.11;63.99
66871;DHT22;53780;44.998;9.926;2023-07-13T18:48:45;28.04;63.29
66871;DHT22;53780;44.998;9.926;2023-07-13T18:51:50;27.97;63.46
66871;DHT22;53780;44.998;9.926;2023-07-13T18:54:54;27.87;63.35
66871;DHT22;53780;44.998;9.926;2023-07-13T18:57:58;27.80;64.36
66871;DHT22;53780;44.998;9.926;2023-07-13T19:01:26;27.70;65.62
66871;DHT22;53780;44.998;9.926;2023-07-13T19:04:31;27.59;66.31
66871;DHT22;53780;44.998;9.926;2023-07-13T19:07:35;27.46;66.67
66871;DHT22;53780;44.998;9.926;2023-07-13T19:10:40;27.42;66.20
66871;DHT22;53780;44.998;9.926;2023-07-13T19:13:44;27.30;66.02
66871;DHT22;53780;44.998;9.926;2023-07-13T19:16:49;27.24;65.98
66871;DHT22;53780;44.998;9.926;2023-07-13T19:19:53;27.18;66.27
66871;DHT22;53780;44.998;9.926;2023-07-13T19:23:03;27.21;65.76
66871;DHT22;53780;44.998;9.926;2023-07-13T19:26:18;27.37;65.06
66871;DHT22;53780;44.998;9.926;2023-07-13T19:29:24;27.39;64.91
66871;DHT22;53780;44.998;9.926;2023-07-13T19:32:28;27.50;64.82
66871;DHT22;53780;44.998;9.926;2023-07-13T19:35:32;27.25;65.81
66871;DHT22;53780;44.998;9.926;2023-07-13T19:38:37;27.08;66.58
66871;DHT22;53780;44.998;9.926;2023-07-13T19:41:42;27.04;66.52
66871;DHT22;53780;44.998;9.926;2023-07-13T19:44:46;27.07;66.16
66871;DHT22;53780;44.998;9.926;2023-07-13T19:47:50;27.11;65.95
66871;DHT22;53780;44.998;9.926;2023-07-13T19:50:54;26.93;67.01
66871;DHT22;53780;44.998;9.926;2023-07-13T19:54:12;27.05;66.20